Time;durP1;ratioP1;P1;durP2;ratioP2;P2;SDS_P1;SDS_P2;PMS_P1;PMS_P2;Temp;Humidity;BMP_temperature;BMP_pressure;BME280_temperature;BME280_humidity;BME280_pressure;Samples;Min_cycle;Max_cycle;Signal;HPM_P1;HPM_P2
2022/04/07 00:00:54;;;;;;;5.50;2.35;;;;;;;8.90;85.37;99213.88;5101301;28;20027;-58
2022/04/07 00:03:20;;;;;;;5.78;2.40;;;;;;;8.81;85.67;99215.00;5108690;28;20027;-58
2022/04/07 00:05:45;;;;;;;7.40;2.50;;;;;;;8.77;85.36;99197.91;5111485;28;20039;-58
2022/04/07 00:08:10;;;;;;;6.32;2.30;;;;;;;8.83;85.17;99200.59;5106453;28;20044;-58
2022/04/07 00:10:36;;;;;;;11.60;2.60;;;;;;;8.81;84.89;99185.91;5108465;28;20036;-58
2022/04/07 00:13:03;;;;;;;5.07;2.30;;;;;;;8.72;85.49;99177.31;5098202;28;20042;-58
2022/04/07 00:15:29;;;;;;;8.30;2.28;;;;;;;8.79;84.53;99187.94;5106043;28;20028;-58
2022/04/07 00:17:54;;;;;;;6.82;2.40;;;;;;;8.71;85.51;99179.16;5109164;28;20489;-58
2022/04/07 00:20:20;;;;;;;7.55;2.50;;;;;;;8.67;85.87;99172.59;5105179;28;20019;-58
2022/04/07 00:22:47;;;;;;;5.75;2.40;;;;;;;8.72;85.33;99170.22;5110061;28;20043;-58
2022/04/07 00:25:13;;;;;;;8.93;2.42;;;;;;;8.75;84.78;99169.81;5111463;28;20024;-58
2022/04/07 00:27:39;;;;;;;7.30;2.58;;;;;;;8.70;85.63;99166.94;5105258;28;20026;-58
2022/04/07 00:30:05;;;;;;;6.55;2.50;;;;;;;8.72;85.33;99153.53;5105413;28;20023;-58
2022/04/07 00:32:30;;;;;;;7.78;2.40;;;;;;;8.71;85.65;99160.66;5098688;28;20444;-57
2022/04/07 00:34:56;;;;;;;9.05;2.67;;;;;;;8.74;85.15;99136.47;5107668;28;20035;-58
2022/04/07 00:37:23;;;;;;;10.00;2.70;;;;;;;8.70;85.29;99135.22;5100849;28;20120;-58
2022/04/07 00:39:51;;;;;;;6.68;2.50;;;;;;;8.69;85.98;99123.00;5099583;28;20489;-58
2022/04/07 00:42:17;;;;;;;12.23;2.70;;;;;;;8.65;86.09;99121.78;5109408;28;20036;-58
2022/04/07 00:44:46;;;;;;;6.95;2.90;;;;;;;8.60;86.56;99113.59;5104274;28;20445;-58
2022/04/07 00:47:11;;;;;;;10.20;2.80;;;;;;;8.58;86.72;99121.72;5110046;28;20058;-58
2022/04/07 00:49:36;;;;;;;9.40;3.10;;;;;;;8.56;86.64;99122.91;5102917;28;20095;-58
2022/04/07 00:52:02;;;;;;;8.95;2.50;;;;;;;8.57;87.36;99108.69;5103006;28;20412;-58
2022/04/07 00:54:30;;;;;;;7.68;2.90;;;;;;;8.56;87.70;99112.34;5101447;28;20507;-58
2022/04/07 00:56:56;;;;;;;7.32;2.75;;;;;;;8.63;86.89;99097.34;5111900;28;20077;-58
2022/04/07 00:59:22;;;;;;;8.30;2.97;;;;;;;8.63;86.40;99097.34;5106447;28;20032;-58
2022/04/07 01:01:48;;;;;;;9.68;2.78;;;;;;;8.61;86.91;99100.19;5109507;28;20563;-59
2022/04/07 01:04:13;;;;;;;8.18;3.10;;;;;;;8.71;86.78;99099.88;5109776;28;20035;-58
2022/04/07 01:06:43;;;;;;;8.77;3.10;;;;;;;8.57;87.69;99096.31;5108065;28;20081;-58
2022/04/07 01:09:10;;;;;;;8.95;3.30;;;;;;;8.51;88.53;99094.38;5100082;28;20134;-58
2022/04/07 01:11:35;;;;;;;8.93;2.95;;;;;;;8.50;88.50;99081.38;5109212;28;20101;-58
2022/04/07 01:14:01;;;;;;;9.63;3.00;;;;;;;8.48;88.61;99069.16;5102328;28;20052;-59
2022/04/07 01:16:28;;;;;;;9.10;3.03;;;;;;;8.61;86.87;99078.25;5104498;28;20119;-59
2022/04/07 01:18:56;;;;;;;9.77;3.17;;;;;;;8.60;87.34;99081.88;5098801;28;20426;-57
2022/04/07 01:21:21;;;;;;;9.40;3.13;;;;;;;8.51;88.32;99056.56;5105224;28;20059;-58
2022/04/07 01:24:00;;;;;;;10.50;3.20;;;;;;;8.46;87.83;99055.34;5108513;28;20100;-58
2022/04/07 01:26:25;;;;;;;11.77;3.15;;;;;;;8.51;87.75;99059.22;5098477;28;20043;-58
2022/04/07 01:28:50;;;;;;;10.18;3.20;;;;;;;8.46;88.44;99042.13;5102739;28;20039;-58
2022/04/07 01:31:16;;;;;;;7.82;2.90;;;;;;;8.57;87.14;99045.28;5106648;28;20474;-57
2022/04/07 01:33:43;;;;;;;9.30;3.13;;;;;;;8.44;87.38;99020.38;5107578;28;20035;-58
2022/04/07 01:36:10;;;;;;;12.45;3.15;;;;;;;8.47;87.27;99035.84;5113059;28;20035;-58
2022/04/07 01:38:36;;;;;;;11.88;3.10;;;;;;;8.57;85.98;99018.84;5106937;28;20106;-57
2022/04/07 01:41:01;;;;;;;10.20;3.05;;;;;;;8.48;87.03;99016.34;5107825;28;20066;-58
2022/04/07 01:43:28;;;;;;;12.75;3.30;;;;;;;8.53;86.39;99009.69;5104126;28;20055;-58
2022/04/07 01:45:53;;;;;;;13.93;3.17;;;;;;;8.58;85.90;98994.88;5115187;28;20426;-58
2022/04/07 01:48:19;;;;;;;8.27;3.05;;;;;;;8.45;86.36;98985.00;5110471;28;20129;-58
2022/04/07 01:50:47;;;;;;;10.82;3.30;;;;;;;8.47;87.11;98998.84;5108169;28;20039;-58
2022/04/07 01:53:13;;;;;;;13.77;3.15;;;;;;;8.51;86.48;98993.19;5104028;28;20027;-58
2022/04/07 01:55:40;;;;;;;10.30;3.45;;;;;;;8.51;86.39;98977.31;5111347;28;20544;-58
2022/04/07 01:58:05;;;;;;;9.32;3.03;;;;;;;8.60;86.34;98981.50;5100634;28;20682;-58
2022/04/07 02:00:31;;;;;;;9.02;2.75;;;;;;;8.61;86.08;98983.94;5103669;28;20044;-56
2022/04/07 02:02:56;;;;;;;11.32;3.10;;;;;;;8.66;85.68;98985.16;5107430;28;20024;-58
2022/04/07 02:05:21;;;;;;;8.88;2.90;;;;;;;8.64;85.96;98976.63;5114602;28;20099;-58
2022/04/07 02:07:47;;;;;;;10.68;3.13;;;;;;;8.69;85.55;98975.03;5106562;28;20055;-58
2022/04/07 02:10:14;;;;;;;9.75;2.88;;;;;;;8.70;86.31;98981.13;5103014;28;20562;-58
2022/04/07 02:12:41;;;;;;;10.48;3.13;;;;;;;8.77;85.57;98986.47;5109866;28;20051;-59
2022/04/07 02:15:07;;;;;;;9.38;2.90;;;;;;;8.66;86.52;98974.59;5111275;28;20020;-58
2022/04/07 02:17:33;;;;;;;14.02;3.10;;;;;;;8.63;86.59;98967.88;5113035;28;20024;-58
2022/04/07 02:19:59;;;;;;;13.80;3.35;;;;;;;8.63;86.37;98959.94;5108537;28;20438;-58
2022/04/07 02:22:28;;;;;;;8.98;2.97;;;;;;;8.61;85.97;98961.97;5111755;28;20027;-58
2022/04/07 02:24:55;;;;;;;15.27;3.38;;;;;;;8.72;84.79;98953.50;5112512;28;20501;-58
2022/04/07 02:27:20;;;;;;;12.25;3.28;;;;;;;8.69;85.33;98964.44;5110366;28;20362;-58
2022/04/07 02:29:45;;;;;;;11.32;3.28;;;;;;;8.61;86.24;98951.41;5099440;28;20031;-58
2022/04/07 02:32:13;;;;;;;12.48;3.35;;;;;;;8.72;84.85;98947.38;5105125;28;20036;-58
2022/04/07 02:34:40;;;;;;;13.48;2.95;;;;;;;8.70;84.56;98950.25;5106965;28;20032;-58
2022/04/07 02:37:06;;;;;;;10.30;3.00;;;;;;;8.85;84.07;98952.75;5107684;28;20031;-58
2022/04/07 02:39:31;;;;;;;15.55;3.03;;;;;;;8.74;84.38;98940.09;5101563;28;20405;-58
2022/04/07 02:41:56;;;;;;;12.15;3.10;;;;;;;8.83;83.74;98933.63;5112125;28;20104;-58
2022/04/07 02:44:21;;;;;;;15.60;3.53;;;;;;;8.85;83.19;98936.06;5097456;28;20027;-58
2022/04/07 02:46:47;;;;;;;12.82;3.28;;;;;;;8.90;82.86;98933.66;5113472;28;20381;-58
2022/04/07 02:49:12;;;;;;;11.60;3.20;;;;;;;8.79;83.22;98916.50;5111153;28;20027;-57
2022/04/07 02:51:38;;;;;;;9.48;2.90;;;;;;;8.82;82.93;98910.03;5112054;28;20430;-58
2022/04/07 02:54:04;;;;;;;11.55;2.90;;;;;;;8.74;83.03;98898.63;5110938;28;20028;-58
2022/04/07 02:56:29;;;;;;;10.13;2.95;;;;;;;8.92;82.41;98904.38;5105638;28;20550;-58
2022/04/07 02:58:56;;;;;;;11.20;3.08;;;;;;;9.00;81.38;98907.66;5102538;28;20036;-58
2022/04/07 03:01:21;;;;;;;13.30;3.50;;;;;;;8.83;83.11;98893.19;5107578;28;20039;-57
2022/04/07 03:03:48;;;;;;;11.88;3.08;;;;;;;8.74;83.51;98877.47;5112865;27;20120;-58
2022/04/07 03:06:14;;;;;;;13.45;3.20;;;;;;;8.80;82.60;98875.88;5111581;28;20023;-58
2022/04/07 03:08:40;;;;;;;11.82;3.40;;;;;;;8.86;82.34;98863.69;5107478;28;20462;-58
2022/04/07 03:11:08;;;;;;;12.77;3.05;;;;;;;8.97;81.30;98865.75;5103759;28;20020;-58
2022/04/07 03:13:33;;;;;;;8.25;2.58;;;;;;;8.96;80.99;98861.50;5108091;28;20051;-58
2022/04/07 03:15:59;;;;;;;11.57;3.30;;;;;;;8.90;82.22;98854.34;5110732;28;20054;-58
2022/04/07 03:18:24;;;;;;;13.48;2.97;;;;;;;8.92;82.03;98841.75;5109078;28;20335;-58
2022/04/07 03:20:49;;;;;;;11.60;2.97;;;;;;;8.91;81.89;98839.28;5100701;28;20769;-58
2022/04/07 03:23:15;;;;;;;8.82;3.28;;;;;;;8.85;82.44;98825.06;5107247;28;20042;-58
2022/04/07 03:25:41;;;;;;;11.13;2.83;;;;;;;8.91;81.45;98824.25;5101869;28;20032;-58
2022/04/07 03:28:06;;;;;;;13.05;3.20;;;;;;;8.90;81.47;98821.81;5099585;28;20038;-59
2022/04/07 03:30:32;;;;;;;11.57;2.90;;;;;;;8.87;81.87;98815.09;5107321;28;20490;-57
2022/04/07 03:32:58;;;;;;;13.52;3.03;;;;;;;8.84;81.75;98823.44;5100463;28;20059;-58
2022/04/07 03:35:23;;;;;;;12.82;3.30;;;;;;;8.93;80.98;98821.44;5111528;28;20084;-58
2022/04/07 03:37:49;;;;;;;16.10;3.08;;;;;;;9.03;79.44;98816.53;5108489;28;20020;-58
2022/04/07 03:40:14;;;;;;;13.05;2.80;;;;;;;8.92;81.84;98815.31;5100415;28;20023;-58
2022/04/07 03:42:39;;;;;;;12.10;2.90;;;;;;;9.12;78.80;98819.81;5102423;28;20027;-58
2022/04/07 03:45:05;;;;;;;12.80;3.05;;;;;;;9.02;79.97;98802.53;5109636;28;20410;-58
2022/04/07 03:47:31;;;;;;;12.48;3.25;;;;;;;9.25;78.41;98797.84;5111321;28;20043;-58
2022/04/07 03:49:57;;;;;;;13.88;3.30;;;;;;;9.07;79.42;98801.91;5102573;28;20035;-58
2022/04/07 03:52:23;;;;;;;11.60;2.85;;;;;;;8.98;80.89;98798.66;5102160;28;20355;-58
2022/04/07 03:54:49;;;;;;;9.90;2.88;;;;;;;8.99;80.01;98784.41;5102717;28;20039;-58
2022/04/07 03:57:14;;;;;;;13.32;2.88;;;;;;;9.11;79.34;98786.47;5102916;28;20051;-58
2022/04/07 03:59:42;;;;;;;9.13;3.00;;;;;;;9.06;79.91;98768.56;5100645;28;20535;-58
2022/04/07 04:02:10;;;;;;;11.95;3.10;;;;;;;9.12;79.00;98766.94;5104280;28;20028;-59
2022/04/07 04:04:36;;;;;;;11.55;2.80;;;;;;;9.11;79.40;98749.44;5101627;28;20040;-58
2022/04/07 04:07:01;;;;;;;12.30;3.00;;;;;;;9.07;79.27;98737.66;5105505;28;20051;-58
2022/04/07 04:09:26;;;;;;;11.35;2.88;;;;;;;9.00;79.59;98738.47;5104931;28;20046;-58
2022/04/07 04:11:53;;;;;;;10.50;3.05;;;;;;;9.03;78.83;98731.94;5103362;28;20063;-58
2022/04/07 04:14:18;;;;;;;10.98;2.67;;;;;;;9.00;79.31;98730.53;5102456;28;20032;-58
2022/04/07 04:16:44;;;;;;;8.50;2.60;;;;;;;9.01;79.67;98703.09;5103641;28;20036;-58
2022/04/07 04:19:10;;;;;;;9.18;2.83;;;;;;;8.98;79.98;98698.19;5100750;28;20036;-58
2022/04/07 04:21:35;;;;;;;8.55;2.63;;;;;;;8.93;80.04;98681.34;5103032;28;20031;-58
2022/04/07 04:24:02;;;;;;;7.43;2.90;;;;;;;9.12;78.90;98669.91;5101330;28;20484;-58
2022/04/07 04:26:27;;;;;;;10.82;2.75;;;;;;;8.97;79.92;98671.94;5099501;28;20451;-58
2022/04/07 04:28:53;;;;;;;8.48;2.75;;;;;;;8.96;80.22;98655.28;5099499;28;20088;-58
2022/04/07 04:31:20;;;;;;;6.57;2.53;;;;;;;8.94;79.81;98643.31;5099612;28;20467;-58
2022/04/07 04:33:45;;;;;;;7.50;2.42;;;;;;;9.00;79.49;98653.88;5101859;28;20033;-58
2022/04/07 04:36:10;;;;;;;5.25;2.30;;;;;;;9.16;78.26;98665.03;5099906;28;20122;-58
2022/04/07 04:38:36;;;;;;;7.53;2.38;;;;;;;9.09;78.98;98646.53;5102489;28;20061;-58
2022/04/07 04:41:02;;;;;;;7.53;2.70;;;;;;;9.20;78.77;98647.75;5103165;27;20114;-59
2022/04/07 04:43:27;;;;;;;7.15;2.60;;;;;;;9.08;79.44;98644.91;5102829;28;20365;-55
2022/04/07 04:45:52;;;;;;;6.22;2.40;;;;;;;9.08;80.20;98644.91;5102541;28;20561;-51
2022/04/07 04:48:17;;;;;;;7.93;2.33;;;;;;;9.03;80.41;98634.13;5097626;28;20032;-59
2022/04/07 04:50:43;;;;;;;7.68;2.20;;;;;;;9.01;81.18;98634.34;5105614;28;20036;-58
2022/04/07 04:53:09;;;;;;;6.03;2.03;;;;;;;9.18;80.65;98619.88;5105486;28;20034;-58
2022/04/07 04:55:36;;;;;;;4.32;1.92;;;;;;;9.27;80.66;98619.44;5106490;28;20035;-58
2022/04/07 04:58:01;;;;;;;6.50;2.40;;;;;;;9.04;82.61;98616.44;5100183;28;20032;-58
2022/04/07 05:00:27;;;;;;;5.10;2.10;;;;;;;8.90;83.57;98611.19;5099071;28;20027;-58
2022/04/07 05:02:52;;;;;;;5.28;2.33;;;;;;;8.83;85.08;98590.03;5102028;28;20034;-58
2022/04/07 05:05:18;;;;;;;2.72;2.00;;;;;;;8.80;85.06;98568.50;5101164;28;20500;-58
2022/04/07 05:07:43;;;;;;;5.47;2.20;;;;;;;8.73;85.66;98558.75;5104021;28;20039;-58
2022/04/07 05:10:08;;;;;;;2.92;2.10;;;;;;;8.73;85.69;98548.19;5101748;28;20047;-58
2022/04/07 05:12:34;;;;;;;4.28;2.30;;;;;;;8.75;85.25;98546.13;5102594;28;20474;-58
2022/04/07 05:14:59;;;;;;;4.47;2.10;;;;;;;8.72;85.61;98551.84;5105762;28;20031;-59
2022/04/07 05:17:24;;;;;;;5.32;1.95;;;;;;;8.69;85.56;98554.88;5100261;28;20465;-58
2022/04/07 05:19:49;;;;;;;4.28;2.05;;;;;;;8.86;84.35;98546.53;5097076;28;20028;-58
2022/04/07 05:22:15;;;;;;;4.43;2.13;;;;;;;8.74;85.69;98541.88;5103955;28;20110;-58
2022/04/07 05:24:40;;;;;;;6.78;2.08;;;;;;;8.78;85.52;98533.53;5101130;28;20084;-58
2022/04/07 05:27:05;;;;;;;4.40;2.05;;;;;;;8.72;86.34;98540.44;5099890;28;20028;-58
2022/04/07 05:29:32;;;;;;;4.50;2.20;;;;;;;8.69;86.08;98525.03;5100181;28;20044;-59
2022/04/07 05:31:57;;;;;;;4.70;2.50;;;;;;;8.81;85.16;98507.50;5098392;28;20038;-60
2022/04/07 05:34:22;;;;;;;6.07;2.50;;;;;;;8.75;85.60;98509.13;5103115;28;20024;-59
2022/04/07 05:36:48;;;;;;;7.55;2.60;;;;;;;8.61;87.93;98523.41;5104673;28;20436;-58
2022/04/07 05:39:13;;;;;;;7.72;2.55;;;;;;;8.59;88.37;98509.59;5099858;28;20050;-58
2022/04/07 05:41:39;;;;;;;5.18;2.80;;;;;;;8.55;89.65;98500.44;5101056;28;20071;-57
2022/04/07 05:44:05;;;;;;;6.18;3.00;;;;;;;8.55;90.25;98481.97;5102091;28;20036;-58
2022/04/07 05:46:30;;;;;;;4.35;2.83;;;;;;;8.41;90.79;98481.97;5101478;28;20405;-58
2022/04/07 05:48:55;;;;;;;7.68;3.05;;;;;;;8.38;91.61;98476.28;5099694;28;20478;-58
2022/04/07 05:51:21;;;;;;;6.00;3.22;;;;;;;8.39;91.54;98468.13;5089045;28;20032;-58
2022/04/07 05:53:47;;;;;;;6.32;3.10;;;;;;;8.29;92.31;98454.56;5099748;28;20122;-58
2022/04/07 05:56:13;;;;;;;6.80;3.17;;;;;;;8.27;92.62;98438.09;5100580;28;20111;-58
2022/04/07 05:58:38;;;;;;;8.93;3.50;;;;;;;8.30;91.95;98438.47;5098545;28;20158;-58
2022/04/07 06:01:03;;;;;;;8.43;3.40;;;;;;;8.24;92.92;98433.22;5102135;28;20040;-58
2022/04/07 06:03:31;;;;;;;7.57;3.30;;;;;;;8.22;93.18;98430.78;5099318;28;20081;-58
2022/04/07 06:05:56;;;;;;;7.60;3.50;;;;;;;8.23;92.71;98426.34;5102632;28;20028;-58
2022/04/07 06:08:25;;;;;;;7.35;3.60;;;;;;;8.27;92.91;98419.59;5102503;28;20054;-58
2022/04/07 06:10:50;;;;;;;9.13;3.67;;;;;;;8.21;93.01;98421.25;5099080;28;20535;-58
2022/04/07 06:13:15;;;;;;;12.18;3.85;;;;;;;8.27;92.64;98414.31;5099046;28;20067;-60
2022/04/07 06:15:41;;;;;;;10.35;3.70;;;;;;;8.21;92.72;98402.78;5099319;28;20039;-58
2022/04/07 06:18:08;;;;;;;8.00;3.78;;;;;;;8.19;92.57;98402.97;5102997;28;20474;-58
2022/04/07 06:20:33;;;;;;;8.63;3.53;;;;;;;8.29;91.70;98391.19;5103980;28;20043;-58
2022/04/07 06:23:00;;;;;;;10.90;3.70;;;;;;;8.24;92.54;98380.44;5103043;28;20039;-58
2022/04/07 06:25:26;;;;;;;10.95;3.47;;;;;;;8.20;93.01;98370.28;5084864;28;20024;-58
2022/04/07 06:27:52;;;;;;;9.10;3.38;;;;;;;8.23;92.71;98360.34;5104145;28;20059;-58
2022/04/07 06:30:19;;;;;;;8.40;3.50;;;;;;;8.26;92.89;98354.63;5104979;28;20033;-58
2022/04/07 06:32:45;;;;;;;6.63;3.13;;;;;;;8.21;93.13;98360.53;5105232;28;20024;-58
2022/04/07 06:35:12;;;;;;;11.40;3.53;;;;;;;8.16;93.54;98355.88;5104778;28;20358;-58
2022/04/07 06:37:55;;;;;;;7.93;3.10;;;;;;;8.18;93.90;98340.63;5102486;28;20036;-58
2022/04/07 06:40:31;;;;;;;10.90;3.13;;;;;;;8.20;93.33;98337.78;5104318;28;20032;-58
2022/04/07 06:42:58;;;;;;;6.97;3.08;;;;;;;8.15;93.88;98325.19;5108989;28;20067;-58
2022/04/07 06:45:28;;;;;;;11.73;2.80;;;;;;;8.19;93.68;98329.06;5099563;28;20100;-58
2022/04/07 06:47:55;;;;;;;7.25;2.58;;;;;;;8.27;92.71;98319.28;5099620;28;20036;-58
2022/04/07 06:50:23;;;;;;;7.43;2.83;;;;;;;8.15;93.86;98309.34;5103978;28;20028;-59
2022/04/07 06:52:49;;;;;;;7.95;2.50;;;;;;;8.13;94.23;98306.13;5105161;28;20382;-59
2022/04/07 06:55:15;;;;;;;9.00;2.60;;;;;;;8.11;94.65;98292.34;5099935;28;20036;-59
2022/04/07 06:58:00;;;;;;;10.88;2.55;;;;;;;8.12;94.75;98278.13;5101409;28;20024;-58
2022/04/07 07:00:29;;;;;;;10.10;2.55;;;;;;;8.14;94.41;98270.78;5100542;28;20024;-58
2022/04/07 07:02:56;;;;;;;7.22;2.22;;;;;;;8.10;94.75;98258.22;5106751;28;20054;-59
2022/04/07 07:05:23;;;;;;;6.70;2.40;;;;;;;8.06;95.33;98242.78;5104291;28;20023;-58
2022/04/07 07:07:49;;;;;;;6.95;2.45;;;;;;;8.09;95.53;98241.56;5098853;28;20038;-63
2022/04/07 07:10:21;;;;;;;9.07;2.70;;;;;;;8.05;96.33;98240.38;5104404;28;20040;-58
2022/04/07 07:12:48;;;;;;;9.70;2.40;;;;;;;8.01;95.67;98225.97;5105231;28;20044;-56
2022/04/07 07:15:14;;;;;;;9.25;2.42;;;;;;;8.03;96.47;98216.00;5105240;28;20047;-56
2022/04/07 07:17:39;;;;;;;7.53;2.60;;;;;;;8.01;97.05;98204.84;5104733;28;20040;-55
2022/04/07 07:20:07;;;;;;;9.63;2.58;;;;;;;8.06;97.21;98195.28;5101776;28;20054;-56
2022/04/07 07:22:32;;;;;;;9.65;2.45;;;;;;;8.05;97.28;98187.59;5104471;28;20035;-56
2022/04/07 07:24:58;;;;;;;5.32;2.35;;;;;;;8.05;97.28;98190.22;5104094;28;20052;-56
2022/04/07 07:27:24;;;;;;;9.45;2.30;;;;;;;8.06;97.18;98178.66;5101367;28;20097;-56
2022/04/07 07:29:49;;;;;;;6.00;2.33;;;;;;;8.04;97.56;98164.88;5102966;28;20032;-55
2022/04/07 07:32:14;;;;;;;10.13;2.78;;;;;;;8.07;97.73;98148.59;5101203;28;20043;-56
2022/04/07 07:34:40;;;;;;;6.35;2.53;;;;;;;8.08;98.23;98150.19;5101208;28;20031;-56
2022/04/07 07:37:05;;;;;;;5.78;2.15;;;;;;;8.12;98.36;98151.41;5086417;28;20044;-55
2022/04/07 07:39:30;;;;;;;5.70;2.33;;;;;;;8.14;98.76;98148.56;5103132;28;20042;-55
2022/04/07 07:41:55;;;;;;;6.40;2.50;;;;;;;8.25;98.41;98139.16;5104463;28;20342;-55
2022/04/07 07:44:21;;;;;;;2.78;2.10;;;;;;;8.33;98.00;98165.28;5101281;28;20035;-56
2022/04/07 07:46:46;;;;;;;5.95;2.38;;;;;;;8.54;96.69;98217.00;5105005;27;20088;-55
2022/04/07 07:49:13;;;;;;;3.25;1.08;;;;;;;8.70;86.35;98309.97;5100746;28;20101;-55
2022/04/07 07:51:38;;;;;;;4.43;1.10;;;;;;;7.73;86.19;98328.13;5098608;28;20051;-58
2022/04/07 07:54:04;;;;;;;2.63;0.98;;;;;;;7.36;85.97;98327.75;5102808;28;20059;-57
2022/04/07 07:56:29;;;;;;;3.63;1.27;;;;;;;6.98;87.92;98343.13;5098139;28;20446;-61
2022/04/07 07:58:55;;;;;;;4.90;1.55;;;;;;;6.76;88.68;98326.63;5104917;28;20035;-61
2022/04/07 08:01:20;;;;;;;2.45;1.02;;;;;;;6.47;89.80;98304.91;5105457;28;20408;-61
2022/04/07 08:03:47;;;;;;;5.32;1.30;;;;;;;6.37;91.37;98309.72;5104444;28;20039;-58
2022/04/07 08:06:13;;;;;;;5.05;1.48;;;;;;;6.10;92.78;98284.09;5102115;28;20032;-59
2022/04/07 08:08:38;;;;;;;5.97;1.90;;;;;;;6.22;92.75;98323.00;5101436;28;20032;-58
2022/04/07 08:11:03;;;;;;;4.97;1.42;;;;;;;6.08;93.64;98301.06;5089177;28;20051;-59
2022/04/07 08:13:30;;;;;;;4.07;1.42;;;;;;;6.13;93.83;98288.13;5100584;28;20028;-58
2022/04/07 08:15:55;;;;;;;5.13;1.70;;;;;;;6.09;94.89;98286.91;5105442;28;20032;-58
2022/04/07 08:18:22;;;;;;;3.83;1.50;;;;;;;6.21;94.18;98282.69;5101949;28;20028;-58
2022/04/07 08:20:47;;;;;;;6.30;1.73;;;;;;;6.17;96.18;98289.38;5099989;28;20027;-58
2022/04/07 08:23:13;;;;;;;6.72;1.67;;;;;;;6.23;96.93;98285.97;5101809;28;20084;-58
2022/04/07 08:25:40;;;;;;;4.45;1.55;;;;;;;6.47;94.58;98294.38;5102863;28;20032;-59
2022/04/07 08:28:06;;;;;;;5.05;1.50;;;;;;;6.45;95.46;98297.19;5104405;28;20069;-58
2022/04/07 08:30:35;;;;;;;4.43;1.38;;;;;;;6.54;95.36;98283.84;5102245;28;20055;-58
2022/04/07 08:33:01;;;;;;;4.55;1.90;;;;;;;6.65;94.67;98285.09;5097312;28;20169;-57
2022/04/07 08:35:27;;;;;;;5.47;1.70;;;;;;;6.63;95.74;98287.09;5098504;28;20063;-58
2022/04/07 08:37:52;;;;;;;6.10;1.63;;;;;;;6.77;96.16;98301.94;5106021;28;20172;-60
2022/04/07 08:40:21;;;;;;;3.47;1.60;;;;;;;6.86;96.03;98297.28;5104359;28;20039;-57
2022/04/07 08:42:47;;;;;;;6.47;1.70;;;;;;;6.92;95.68;98293.88;5105396;28;20059;-57
2022/04/07 08:45:12;;;;;;;6.10;1.80;;;;;;;7.02;95.59;98290.84;5100085;28;20063;-57
2022/04/07 08:47:39;;;;;;;6.70;1.88;;;;;;;7.04;96.04;98277.44;5099147;28;20027;-57
2022/04/07 08:50:08;;;;;;;5.22;1.80;;;;;;;7.13;96.18;98271.78;5099935;28;20032;-57
2022/04/07 08:52:35;;;;;;;4.38;2.05;;;;;;;7.26;96.67;98272.81;5100489;28;20028;-57
2022/04/07 08:55:03;;;;;;;5.10;1.77;;;;;;;7.46;94.83;98267.50;5100578;28;20031;-57
2022/04/07 08:57:31;;;;;;;5.72;1.95;;;;;;;7.54;95.12;98282.28;5102320;28;20103;-57
2022/04/07 09:00:00;;;;;;;4.22;2.13;;;;;;;7.65;95.08;98279.03;5100640;28;20050;-57
2022/04/07 09:02:25;;;;;;;6.85;2.40;;;;;;;7.76;94.85;98284.72;5101307;28;20073;-56
2022/04/07 09:04:58;;;;;;;5.22;2.22;;;;;;;7.85;95.30;98272.91;5102837;28;20047;-57
2022/04/07 09:07:30;;;;;;;3.80;2.17;;;;;;;8.02;95.61;98283.84;5102787;28;20031;-56
2022/04/07 09:10:01;;;;;;;6.22;2.42;;;;;;;8.23;93.08;98273.22;5098465;28;20134;-57
2022/04/07 09:12:27;;;;;;;6.25;2.28;;;;;;;8.19;94.32;98273.63;5105453;28;20047;-58
2022/04/07 09:14:57;;;;;;;4.13;1.90;;;;;;;8.38;90.72;98276.38;5102837;28;20070;-57
2022/04/07 09:17:23;;;;;;;6.78;2.10;;;;;;;8.35;90.90;98274.16;5102765;28;20080;-58
2022/04/07 09:19:52;;;;;;;6.97;2.47;;;;;;;8.44;93.27;98275.53;5103605;28;20028;-58
2022/04/07 09:22:18;;;;;;;6.22;2.40;;;;;;;8.53;92.04;98291.19;5100667;28;20024;-59
2022/04/07 09:24:43;;;;;;;3.33;1.90;;;;;;;8.66;92.34;98283.19;5105434;28;20040;-59
2022/04/07 09:27:10;;;;;;;7.35;2.50;;;;;;;8.67;93.61;98274.22;5105223;28;20050;-58
2022/04/07 09:29:40;;;;;;;7.93;3.15;;;;;;;8.93;95.00;98280.34;5101700;28;20036;-59
2022/04/07 09:32:19;;;;;;;7.22;3.40;;;;;;;9.15;93.70;98286.13;5102057;28;20035;-57
2022/04/07 09:34:51;;;;;;;5.03;3.30;;;;;;;9.23;92.20;98292.97;5089942;28;20055;-59
2022/04/07 09:37:23;;;;;;;5.40;2.78;;;;;;;9.40;91.15;98292.41;5100975;28;20663;-58
2022/04/07 09:39:50;;;;;;;4.75;2.50;;;;;;;9.50;88.27;98303.34;5101923;28;20438;-58
2022/04/07 09:42:25;;;;;;;6.15;2.60;;;;;;;9.55;84.26;98298.19;5103180;28;20081;-57
2022/04/07 09:44:52;;;;;;;8.45;2.67;;;;;;;9.49;82.57;98292.97;5105461;28;20043;-57
2022/04/07 09:47:19;;;;;;;7.55;2.63;;;;;;;9.51;81.95;98294.38;5103584;28;20023;-58
2022/04/07 09:49:45;;;;;;;4.93;2.08;;;;;;;9.60;78.87;98286.97;5102986;28;20055;-58
2022/04/07 09:52:11;;;;;;;4.88;2.40;;;;;;;9.69;76.83;98295.44;5105146;28;20426;-58
2022/04/07 09:54:41;;;;;;;4.95;2.30;;;;;;;9.79;79.05;98284.34;5104661;28;20024;-58
2022/04/07 09:57:09;;;;;;;4.22;2.08;;;;;;;9.81;75.88;98288.38;5105540;28;20035;-57
2022/04/07 09:59:37;;;;;;;3.85;1.90;;;;;;;9.94;73.15;98297.22;5109407;28;20023;-58
2022/04/07 10:02:04;;;;;;;4.03;2.03;;;;;;;9.97;71.34;98294.13;5108221;28;20427;-57
2022/04/07 10:04:30;;;;;;;7.07;2.45;;;;;;;10.08;71.00;98290.72;5107783;28;20054;-59
2022/04/07 10:06:57;;;;;;;8.35;2.67;;;;;;;10.03;73.74;98301.19;5108966;28;20445;-57
2022/04/07 10:09:23;;;;;;;5.55;2.22;;;;;;;9.95;75.01;98289.06;5108795;27;20148;-57
2022/04/07 10:11:50;;;;;;;8.40;2.42;;;;;;;9.95;72.92;98282.94;5108637;28;20470;-58
2022/04/07 10:14:21;;;;;;;6.88;2.30;;;;;;;10.04;70.62;98307.28;5112016;28;20119;-56
2022/04/07 10:16:47;;;;;;;3.47;1.90;;;;;;;10.11;69.70;98302.72;5106299;28;20690;-57
2022/04/07 10:19:15;;;;;;;8.60;2.38;;;;;;;10.25;67.22;98295.44;5103001;28;20106;-56
2022/04/07 10:21:51;;;;;;;6.00;2.20;;;;;;;10.44;69.65;98300.75;5109852;28;20035;-57
2022/04/07 10:24:37;;;;;;;9.27;2.20;;;;;;;10.66;67.47;98322.25;5107878;28;20035;-57
2022/04/07 10:27:06;;;;;;;7.25;2.20;;;;;;;10.54;67.12;98306.31;5104396;28;20022;-57
2022/04/07 10:29:32;;;;;;;4.25;1.60;;;;;;;10.70;66.81;98309.41;5102099;28;20062;-57
2022/04/07 10:32:12;;;;;;;5.95;2.10;;;;;;;10.80;65.89;98314.16;5106329;28;20056;-57
2022/04/07 10:34:53;;;;;;;9.02;1.90;;;;;;;10.77;67.25;98312.75;5102145;28;20062;-56
2022/04/07 10:37:39;;;;;;;7.65;1.95;;;;;;;10.52;67.37;98324.31;5105188;28;20067;-56
2022/04/07 10:40:33;;;;;;;6.63;1.80;;;;;;;10.56;67.77;98329.97;5103707;28;20032;-55
2022/04/07 10:43:14;;;;;;;7.18;2.15;;;;;;;10.45;66.66;98328.84;5108252;28;20027;-57
2022/04/07 10:46:14;;;;;;;10.77;2.50;;;;;;;10.20;66.51;98348.25;5101641;28;20097;-57
2022/04/07 10:48:50;;;;;;;8.73;2.33;;;;;;;10.31;65.88;98325.53;5096936;28;20064;-56
2022/04/07 10:51:16;;;;;;;7.93;1.80;;;;;;;10.12;64.83;98351.22;5104480;28;20355;-56
2022/04/07 10:53:53;;;;;;;5.90;1.90;;;;;;;10.26;67.80;98357.97;5114733;28;20039;-56
2022/04/07 10:56:24;;;;;;;8.60;1.80;;;;;;;10.49;65.58;98356.53;5102280;28;20020;-56
2022/04/07 10:58:51;;;;;;;9.73;2.42;;;;;;;10.81;68.62;98356.31;5104935;28;20030;-58
2022/04/07 11:01:26;;;;;;;9.32;2.60;;;;;;;11.02;65.58;98370.94;5107586;28;20105;-58
2022/04/07 11:04:16;;;;;;;9.65;2.20;;;;;;;10.89;64.07;98374.59;5108947;28;20096;-57
2022/04/07 11:07:10;;;;;;;9.23;1.95;;;;;;;10.75;66.79;98373.13;5106390;28;20043;-56
2022/04/07 11:10:00;;;;;;;9.88;2.25;;;;;;;10.78;62.55;98380.66;5101680;28;20127;-58
2022/04/07 11:12:29;;;;;;;7.28;1.85;;;;;;;10.89;64.20;98387.84;5109180;28;20034;-58
2022/04/07 11:15:03;;;;;;;5.60;1.70;;;;;;;11.13;63.73;98387.94;5105203;28;20043;-57
2022/04/07 11:17:47;;;;;;;7.25;1.92;;;;;;;11.03;63.28;98391.13;5111346;28;20382;-58
2022/04/07 11:20:24;;;;;;;10.82;2.25;;;;;;;11.12;64.41;98412.84;5107923;28;20027;-58
2022/04/07 11:22:57;;;;;;;11.30;2.65;;;;;;;11.15;62.57;98420.34;5100125;28;20052;-57
2022/04/07 11:25:25;;;;;;;6.90;1.50;;;;;;;11.43;63.93;98408.31;5102303;28;20042;-58
2022/04/07 11:28:14;;;;;;;8.52;2.72;;;;;;;11.49;63.06;98432.34;5106295;28;20568;-59
2022/04/07 11:30:42;;;;;;;7.20;2.20;;;;;;;11.27;60.48;98419.59;5108378;28;20077;-59
2022/04/07 11:33:20;;;;;;;10.50;2.10;;;;;;;11.10;61.57;98441.41;5105773;28;20027;-59
2022/04/07 11:36:00;;;;;;;17.15;2.70;;;;;;;10.99;64.01;98450.13;5101340;28;20422;-59
2022/04/07 11:38:26;;;;;;;8.45;2.13;;;;;;;10.86;60.48;98443.97;5097948;28;20035;-59
2022/04/07 11:41:31;;;;;;;8.63;2.35;;;;;;;11.08;58.14;98454.09;5099225;28;20024;-59